sensor_id;sensor_type;location;lat;lon;timestamp;P1;durP1;ratioP1;P2;durP2;ratioP2
946;SDS011;460;48.734;9.152;2024-03-17T00:01:10;7.73;;;6.90;;
946;SDS011;460;48.734;9.152;2024-03-17T00:03:36;8.55;;;7.60;;
946;SDS011;460;48.734;9.152;2024-03-17T00:06:05;12.30;;;8.57;;
946;SDS011;460;48.734;9.152;2024-03-17T00:08:31;11.05;;;8.43;;
946;SDS011;460;48.734;9.152;2024-03-17T00:10:57;8.70;;;7.53;;
946;SDS011;460;48.734;9.152;2024-03-17T00:13:24;10.30;;;8.45;;
946;SDS011;460;48.734;9.152;2024-03-17T00:15:51;9.30;;;8.27;;
946;SDS011;460;48.734;9.152;2024-03-17T00:18:17;8.30;;;7.50;;
946;SDS011;460;48.734;9.152;2024-03-17T00:20:44;8.82;;;7.38;;
946;SDS011;460;48.734;9.152;2024-03-17T00:23:11;8.70;;;7.63;;
946;SDS011;460;48.734;9.152;2024-03-17T00:25:38;8.35;;;6.47;;
946;SDS011;460;48.734;9.152;2024-03-17T00:28:05;8.20;;;6.70;;
946;SDS011;460;48.734;9.152;2024-03-17T00:30:32;8.80;;;7.00;;
946;SDS011;460;48.734;9.152;2024-03-17T00:32:57;7.97;;;6.90;;
946;SDS011;460;48.734;9.152;2024-03-17T00:35:25;8.90;;;7.10;;
946;SDS011;460;48.734;9.152;2024-03-17T00:37:51;8.73;;;7.30;;
946;SDS011;460;48.734;9.152;2024-03-17T00:40:19;8.68;;;7.40;;
946;SDS011;460;48.734;9.152;2024-03-17T00:42:46;9.50;;;8.60;;
946;SDS011;460;48.734;9.152;2024-03-17T00:45:13;8.52;;;7.72;;
946;SDS011;460;48.734;9.152;2024-03-17T00:47:39;9.00;;;7.30;;
946;SDS011;460;48.734;9.152;2024-03-17T00:50:06;11.88;;;8.63;;
946;SDS011;460;48.734;9.152;2024-03-17T00:52:33;9.85;;;7.75;;
946;SDS011;460;48.734;9.152;2024-03-17T00:55:00;9.48;;;8.10;;
946;SDS011;460;48.734;9.152;2024-03-17T00:57:28;9.80;;;7.40;;
946;SDS011;460;48.734;9.152;2024-03-17T00:59:55;11.52;;;8.35;;
946;SDS011;460;48.734;9.152;2024-03-17T01:02:21;9.00;;;7.85;;
946;SDS011;460;48.734;9.152;2024-03-17T01:04:48;10.95;;;8.57;;
946;SDS011;460;48.734;9.152;2024-03-17T01:07:14;10.20;;;9.00;;
946;SDS011;460;48.734;9.152;2024-03-17T01:09:41;8.27;;;7.45;;
946;SDS011;460;48.734;9.152;2024-03-17T01:12:06;12.80;;;8.47;;
946;SDS011;460;48.734;9.152;2024-03-17T01:14:35;9.63;;;7.75;;
946;SDS011;460;48.734;9.152;2024-03-17T01:17:01;10.40;;;8.65;;
946;SDS011;460;48.734;9.152;2024-03-17T01:19:30;10.10;;;6.82;;
946;SDS011;460;48.734;9.152;2024-03-17T01:21:56;8.95;;;6.55;;
946;SDS011;460;48.734;9.152;2024-03-17T01:24:23;7.47;;;6.60;;
946;SDS011;460;48.734;9.152;2024-03-17T01:26:49;10.88;;;7.20;;
946;SDS011;460;48.734;9.152;2024-03-17T01:29:18;12.38;;;6.90;;
946;SDS011;460;48.734;9.152;2024-03-17T01:31:45;8.63;;;7.30;;
946;SDS011;460;48.734;9.152;2024-03-17T01:34:12;9.20;;;6.93;;
946;SDS011;460;48.734;9.152;2024-03-17T01:36:37;10.80;;;7.83;;
946;SDS011;460;48.734;9.152;2024-03-17T01:39:04;7.57;;;6.35;;
946;SDS011;460;48.734;9.152;2024-03-17T01:41:30;9.60;;;7.63;;
946;SDS011;460;48.734;9.152;2024-03-17T01:43:57;8.13;;;7.05;;
946;SDS011;460;48.734;9.152;2024-03-17T01:46:24;7.20;;;6.35;;
946;SDS011;460;48.734;9.152;2024-03-17T01:48:52;7.82;;;6.53;;
946;SDS011;460;48.734;9.152;2024-03-17T01:51:18;9.60;;;7.93;;
946;SDS011;460;48.734;9.152;2024-03-17T01:53:45;9.95;;;6.85;;
946;SDS011;460;48.734;9.152;2024-03-17T01:56:12;9.77;;;6.65;;
946;SDS011;460;48.734;9.152;2024-03-17T01:58:42;10.63;;;7.68;;
946;SDS011;460;48.734;9.152;2024-03-17T02:01:09;6.50;;;5.90;;
946;SDS011;460;48.734;9.152;2024-03-17T02:03:39;7.57;;;6.80;;
946;SDS011;460;48.734;9.152;2024-03-17T02:06:06;7.93;;;6.95;;
946;SDS011;460;48.734;9.152;2024-03-17T02:08:46;8.93;;;7.27;;
946;SDS011;460;48.734;9.152;2024-03-17T02:11:15;7.50;;;6.63;;
946;SDS011;460;48.734;9.152;2024-03-17T02:13:51;9.90;;;6.20;;
946;SDS011;460;48.734;9.152;2024-03-17T02:16:17;6.40;;;5.80;;
946;SDS011;460;48.734;9.152;2024-03-17T02:18:45;6.77;;;5.73;;
946;SDS011;460;48.734;9.152;2024-03-17T02:21:14;7.07;;;6.38;;
946;SDS011;460;48.734;9.152;2024-03-17T02:23:43;7.60;;;6.80;;
946;SDS011;460;48.734;9.152;2024-03-17T02:26:10;9.00;;;6.95;;
946;SDS011;460;48.734;9.152;2024-03-17T02:28:39;7.30;;;6.60;;
946;SDS011;460;48.734;9.152;2024-03-17T02:31:08;8.27;;;6.67;;
946;SDS011;460;48.734;9.152;2024-03-17T02:33:37;8.77;;;6.73;;
946;SDS011;460;48.734;9.152;2024-03-17T02:36:05;9.20;;;7.93;;
946;SDS011;460;48.734;9.152;2024-03-17T02:38:34;9.53;;;6.03;;
946;SDS011;460;48.734;9.152;2024-03-17T02:41:21;8.23;;;6.53;;
946;SDS011;460;48.734;9.152;2024-03-17T02:43:48;7.53;;;6.83;;
946;SDS011;460;48.734;9.152;2024-03-17T02:46:16;9.00;;;7.53;;
946;SDS011;460;48.734;9.152;2024-03-17T02:48:44;9.10;;;7.00;;
946;SDS011;460;48.734;9.152;2024-03-17T02:51:13;10.93;;;7.63;;
946;SDS011;460;48.734;9.152;2024-03-17T02:53:41;8.40;;;7.60;;
946;SDS011;460;48.734;9.152;2024-03-17T02:56:09;7.73;;;6.80;;
946;SDS011;460;48.734;9.152;2024-03-17T02:58:39;8.57;;;7.50;;
946;SDS011;460;48.734;9.152;2024-03-17T03:01:07;8.90;;;7.53;;
946;SDS011;460;48.734;9.152;2024-03-17T03:03:35;9.07;;;7.67;;
946;SDS011;460;48.734;9.152;2024-03-17T03:06:03;11.67;;;6.70;;
946;SDS011;460;48.734;9.152;2024-03-17T03:08:34;9.67;;;7.33;;
946;SDS011;460;48.734;9.152;2024-03-17T03:11:02;8.60;;;6.83;;
946;SDS011;460;48.734;9.152;2024-03-17T03:13:29;9.10;;;7.70;;
946;SDS011;460;48.734;9.152;2024-03-17T03:15:58;10.60;;;8.07;;
946;SDS011;460;48.734;9.152;2024-03-17T03:18:25;8.70;;;7.80;;
946;SDS011;460;48.734;9.152;2024-03-17T03:20:53;12.70;;;6.03;;
946;SDS011;460;48.734;9.152;2024-03-17T03:23:23;7.57;;;6.73;;
946;SDS011;460;48.734;9.152;2024-03-17T03:25:54;9.13;;;7.13;;
946;SDS011;460;48.734;9.152;2024-03-17T03:28:22;8.43;;;6.97;;
946;SDS011;460;48.734;9.152;2024-03-17T03:30:50;8.20;;;7.00;;
946;SDS011;460;48.734;9.152;2024-03-17T03:33:20;10.65;;;7.75;;
946;SDS011;460;48.734;9.152;2024-03-17T03:35:47;8.97;;;7.00;;
946;SDS011;460;48.734;9.152;2024-03-17T03:38:16;7.90;;;6.70;;
946;SDS011;460;48.734;9.152;2024-03-17T03:40:45;9.17;;;7.10;;
946;SDS011;460;48.734;9.152;2024-03-17T03:43:14;8.07;;;7.00;;
946;SDS011;460;48.734;9.152;2024-03-17T03:45:43;8.83;;;7.50;;
946;SDS011;460;48.734;9.152;2024-03-17T03:48:12;7.82;;;6.25;;
946;SDS011;460;48.734;9.152;2024-03-17T03:50:42;21.27;;;8.30;;
946;SDS011;460;48.734;9.152;2024-03-17T03:53:11;7.67;;;6.37;;
946;SDS011;460;48.734;9.152;2024-03-17T03:55:39;8.80;;;6.80;;
946;SDS011;460;48.734;9.152;2024-03-17T03:58:07;10.98;;;8.70;;
946;SDS011;460;48.734;9.152;2024-03-17T04:00:33;8.63;;;7.30;;
946;SDS011;460;48.734;9.152;2024-03-17T04:03:00;9.88;;;8.55;;
946;SDS011;460;48.734;9.152;2024-03-17T04:05:27;10.80;;;8.50;;
946;SDS011;460;48.734;9.152;2024-03-17T04:07:55;8.18;;;7.28;;
946;SDS011;460;48.734;9.152;2024-03-17T04:10:23;9.85;;;8.02;;
946;SDS011;460;48.734;9.152;2024-03-17T04:12:50;10.63;;;8.73;;
946;SDS011;460;48.734;9.152;2024-03-17T04:15:17;8.95;;;8.02;;
946;SDS011;460;48.734;9.152;2024-03-17T04:17:44;9.75;;;8.75;;
946;SDS011;460;48.734;9.152;2024-03-17T04:20:11;9.32;;;8.30;;
946;SDS011;460;48.734;9.152;2024-03-17T04:22:39;10.73;;;8.88;;
946;SDS011;460;48.734;9.152;2024-03-17T04:25:07;10.68;;;9.65;;
946;SDS011;460;48.734;9.152;2024-03-17T04:27:34;11.38;;;8.70;;
946;SDS011;460;48.734;9.152;2024-03-17T04:30:02;12.65;;;9.88;;
946;SDS011;460;48.734;9.152;2024-03-17T04:32:31;10.43;;;9.00;;
946;SDS011;460;48.734;9.152;2024-03-17T04:34:58;12.35;;;9.65;;
946;SDS011;460;48.734;9.152;2024-03-17T04:37:24;10.57;;;8.38;;
946;SDS011;460;48.734;9.152;2024-03-17T04:39:51;10.38;;;9.35;;
946;SDS011;460;48.734;9.152;2024-03-17T04:42:19;14.75;;;12.60;;
946;SDS011;460;48.734;9.152;2024-03-17T04:44:46;11.43;;;9.52;;
946;SDS011;460;48.734;9.152;2024-03-17T04:47:13;14.88;;;10.25;;
946;SDS011;460;48.734;9.152;2024-03-17T04:49:40;11.17;;;9.70;;
946;SDS011;460;48.734;9.152;2024-03-17T04:52:09;10.40;;;9.05;;
946;SDS011;460;48.734;9.152;2024-03-17T04:54:36;11.43;;;9.30;;
946;SDS011;460;48.734;9.152;2024-03-17T04:57:03;11.90;;;10.40;;
946;SDS011;460;48.734;9.152;2024-03-17T04:59:33;11.33;;;9.60;;
946;SDS011;460;48.734;9.152;2024-03-17T05:02:01;12.75;;;9.70;;
946;SDS011;460;48.734;9.152;2024-03-17T05:04:28;14.80;;;10.20;;
946;SDS011;460;48.734;9.152;2024-03-17T05:06:55;10.70;;;9.15;;
946;SDS011;460;48.734;9.152;2024-03-17T05:09:22;11.60;;;10.40;;
946;SDS011;460;48.734;9.152;2024-03-17T05:11:49;14.50;;;11.53;;
946;SDS011;460;48.734;9.152;2024-03-17T05:14:18;13.45;;;11.68;;
946;SDS011;460;48.734;9.152;2024-03-17T05:16:47;12.35;;;10.25;;
946;SDS011;460;48.734;9.152;2024-03-17T05:19:15;13.48;;;11.20;;
946;SDS011;460;48.734;9.152;2024-03-17T05:21:42;16.60;;;11.02;;
946;SDS011;460;48.734;9.152;2024-03-17T05:24:09;18.55;;;13.27;;
946;SDS011;460;48.734;9.152;2024-03-17T05:26:37;14.70;;;11.88;;
946;SDS011;460;48.734;9.152;2024-03-17T05:29:04;12.95;;;11.02;;
946;SDS011;460;48.734;9.152;2024-03-17T05:31:30;17.80;;;13.13;;
946;SDS011;460;48.734;9.152;2024-03-17T05:33:59;17.52;;;13.48;;
946;SDS011;460;48.734;9.152;2024-03-17T05:36:25;15.50;;;12.93;;
946;SDS011;460;48.734;9.152;2024-03-17T05:38:57;15.63;;;12.93;;
946;SDS011;460;48.734;9.152;2024-03-17T05:41:24;16.33;;;12.55;;
946;SDS011;460;48.734;9.152;2024-03-17T05:43:51;16.02;;;12.68;;
946;SDS011;460;48.734;9.152;2024-03-17T05:46:18;16.30;;;12.95;;
946;SDS011;460;48.734;9.152;2024-03-17T05:48:45;16.13;;;12.20;;
946;SDS011;460;48.734;9.152;2024-03-17T05:51:13;14.80;;;12.80;;
946;SDS011;460;48.734;9.152;2024-03-17T05:53:41;16.83;;;14.25;;
946;SDS011;460;48.734;9.152;2024-03-17T05:56:09;16.95;;;12.88;;
946;SDS011;460;48.734;9.152;2024-03-17T05:58:37;18.40;;;12.98;;
946;SDS011;460;48.734;9.152;2024-03-17T06:01:05;15.88;;;14.05;;
946;SDS011;460;48.734;9.152;2024-03-17T06:03:33;16.67;;;12.83;;
946;SDS011;460;48.734;9.152;2024-03-17T06:06:01;15.77;;;14.00;;
946;SDS011;460;48.734;9.152;2024-03-17T06:08:29;15.82;;;13.18;;
946;SDS011;460;48.734;9.152;2024-03-17T06:10:56;15.65;;;11.20;;
946;SDS011;460;48.734;9.152;2024-03-17T06:13:25;14.98;;;13.02;;
946;SDS011;460;48.734;9.152;2024-03-17T06:15:53;17.52;;;12.73;;
946;SDS011;460;48.734;9.152;2024-03-17T06:18:20;17.10;;;13.93;;
946;SDS011;460;48.734;9.152;2024-03-17T06:20:48;16.65;;;11.93;;
946;SDS011;460;48.734;9.152;2024-03-17T06:23:15;16.27;;;12.90;;
946;SDS011;460;48.734;9.152;2024-03-17T06:25:44;15.63;;;13.18;;
946;SDS011;460;48.734;9.152;2024-03-17T06:28:12;16.58;;;13.48;;
946;SDS011;460;48.734;9.152;2024-03-17T06:30:40;15.65;;;13.45;;
946;SDS011;460;48.734;9.152;2024-03-17T06:33:07;18.13;;;13.43;;
946;SDS011;460;48.734;9.152;2024-03-17T06:35:36;17.45;;;14.15;;
946;SDS011;460;48.734;9.152;2024-03-17T06:38:02;16.60;;;13.60;;
946;SDS011;460;48.734;9.152;2024-03-17T06:40:30;15.43;;;13.40;;
946;SDS011;460;48.734;9.152;2024-03-17T06:42:58;15.43;;;12.00;;
946;SDS011;460;48.734;9.152;2024-03-17T06:45:25;14.70;;;13.20;;
946;SDS011;460;48.734;9.152;2024-03-17T06:47:52;17.07;;;14.83;;
946;SDS011;460;48.734;9.152;2024-03-17T06:50:20;15.05;;;13.45;;
946;SDS011;460;48.734;9.152;2024-03-17T06:52:47;16.03;;;13.33;;
946;SDS011;460;48.734;9.152;2024-03-17T06:55:14;16.53;;;13.40;;
946;SDS011;460;48.734;9.152;2024-03-17T06:57:41;18.10;;;14.50;;
946;SDS011;460;48.734;9.152;2024-03-17T07:00:11;16.00;;;14.30;;
946;SDS011;460;48.734;9.152;2024-03-17T07:02:41;17.43;;;14.80;;
946;SDS011;460;48.734;9.152;2024-03-17T07:05:11;14.30;;;12.43;;
946;SDS011;460;48.734;9.152;2024-03-17T07:07:40;14.90;;;12.27;;
946;SDS011;460;48.734;9.152;2024-03-17T07:10:07;17.30;;;12.30;;
946;SDS011;460;48.734;9.152;2024-03-17T07:12:36;16.53;;;14.73;;
946;SDS011;460;48.734;9.152;2024-03-17T07:15:03;16.97;;;13.97;;
946;SDS011;460;48.734;9.152;2024-03-17T07:17:31;16.53;;;14.23;;
946;SDS011;460;48.734;9.152;2024-03-17T07:19:58;17.40;;;15.17;;
946;SDS011;460;48.734;9.152;2024-03-17T07:22:25;16.90;;;14.73;;
946;SDS011;460;48.734;9.152;2024-03-17T07:24:53;19.40;;;15.57;;
946;SDS011;460;48.734;9.152;2024-03-17T07:27:21;16.73;;;13.30;;
946;SDS011;460;48.734;9.152;2024-03-17T07:29:48;17.20;;;14.77;;
946;SDS011;460;48.734;9.152;2024-03-17T07:32:15;20.07;;;17.20;;
946;SDS011;460;48.734;9.152;2024-03-17T07:34:43;20.43;;;18.33;;
946;SDS011;460;48.734;9.152;2024-03-17T07:37:10;21.40;;;19.10;;
946;SDS011;460;48.734;9.152;2024-03-17T07:39:37;19.37;;;17.47;;
946;SDS011;460;48.734;9.152;2024-03-17T07:42:04;21.17;;;17.27;;
946;SDS011;460;48.734;9.152;2024-03-17T07:44:32;19.83;;;17.93;;
946;SDS011;460;48.734;9.152;2024-03-17T07:46:59;18.00;;;16.20;;
946;SDS011;460;48.734;9.152;2024-03-17T07:49:26;20.10;;;16.63;;
946;SDS011;460;48.734;9.152;2024-03-17T07:51:54;18.93;;;16.87;;
946;SDS011;460;48.734;9.152;2024-03-17T07:54:22;22.00;;;19.70;;
946;SDS011;460;48.734;9.152;2024-03-17T07:56:49;21.03;;;18.80;;
946;SDS011;460;48.734;9.152;2024-03-17T07:59:16;22.43;;;17.50;;
946;SDS011;460;48.734;9.152;2024-03-17T08:01:43;20.07;;;17.87;;
946;SDS011;460;48.734;9.152;2024-03-17T08:04:10;16.37;;;14.70;;
946;SDS011;460;48.734;9.152;2024-03-17T08:06:37;14.53;;;12.67;;
946;SDS011;460;48.734;9.152;2024-03-17T08:09:07;14.37;;;12.87;;
946;SDS011;460;48.734;9.152;2024-03-17T08:11:34;14.57;;;12.43;;
946;SDS011;460;48.734;9.152;2024-03-17T08:14:00;11.57;;;10.47;;
946;SDS011;460;48.734;9.152;2024-03-17T08:16:27;14.20;;;11.07;;
946;SDS011;460;48.734;9.152;2024-03-17T08:18:55;9.87;;;8.87;;
946;SDS011;460;48.734;9.152;2024-03-17T08:21:22;9.63;;;8.63;;
946;SDS011;460;48.734;9.152;2024-03-17T08:23:49;9.20;;;8.27;;
946;SDS011;460;48.734;9.152;2024-03-17T08:26:18;10.03;;;8.20;;
946;SDS011;460;48.734;9.152;2024-03-17T08:28:44;10.43;;;9.37;;
946;SDS011;460;48.734;9.152;2024-03-17T08:31:12;9.10;;;8.30;;
946;SDS011;460;48.734;9.152;2024-03-17T08:33:40;9.70;;;8.77;;
946;SDS011;460;48.734;9.152;2024-03-17T08:36:07;8.20;;;7.40;;
946;SDS011;460;48.734;9.152;2024-03-17T08:38:36;6.90;;;6.30;;
946;SDS011;460;48.734;9.152;2024-03-17T08:41:04;7.67;;;6.97;;
946;SDS011;460;48.734;9.152;2024-03-17T08:43:33;7.30;;;6.60;;
946;SDS011;460;48.734;9.152;2024-03-17T08:46:02;7.10;;;6.40;;
946;SDS011;460;48.734;9.152;2024-03-17T08:48:30;7.43;;;6.83;;
946;SDS011;460;48.734;9.152;2024-03-17T08:50:58;12.20;;;8.13;;
946;SDS011;460;48.734;9.152;2024-03-17T08:53:26;9.27;;;7.47;;
946;SDS011;460;48.734;9.152;2024-03-17T08:55:54;10.27;;;7.70;;
946;SDS011;460;48.734;9.152;2024-03-17T08:58:21;8.93;;;6.90;;
946;SDS011;460;48.734;9.152;2024-03-17T09:00:50;7.27;;;6.43;;
946;SDS011;460;48.734;9.152;2024-03-17T09:03:17;6.83;;;6.23;;
946;SDS011;460;48.734;9.152;2024-03-17T09:05:44;5.83;;;5.17;;
946;SDS011;460;48.734;9.152;2024-03-17T09:08:14;7.67;;;6.63;;
946;SDS011;460;48.734;9.152;2024-03-17T09:10:45;7.00;;;6.33;;
946;SDS011;460;48.734;9.152;2024-03-17T09:13:13;6.50;;;5.90;;
946;SDS011;460;48.734;9.152;2024-03-17T09:15:41;6.83;;;5.40;;
946;SDS011;460;48.734;9.152;2024-03-17T09:18:16;6.30;;;5.70;;
946;SDS011;460;48.734;9.152;2024-03-17T09:20:43;5.87;;;5.30;;
946;SDS011;460;48.734;9.152;2024-03-17T09:23:11;6.03;;;5.43;;
946;SDS011;460;48.734;9.152;2024-03-17T09:25:37;4.87;;;4.33;;
946;SDS011;460;48.734;9.152;2024-03-17T09:28:04;5.70;;;4.30;;
946;SDS011;460;48.734;9.152;2024-03-17T09:30:31;4.30;;;3.90;;
946;SDS011;460;48.734;9.152;2024-03-17T09:32:59;5.03;;;4.53;;
946;SDS011;460;48.734;9.152;2024-03-17T09:35:27;5.50;;;5.00;;
946;SDS011;460;48.734;9.152;2024-03-17T09:37:54;3.50;;;3.20;;
946;SDS011;460;48.734;9.152;2024-03-17T09:40:20;4.43;;;3.90;;
946;SDS011;460;48.734;9.152;2024-03-17T09:42:47;6.30;;;3.60;;
946;SDS011;460;48.734;9.152;2024-03-17T09:45:14;4.33;;;3.77;;
946;SDS011;460;48.734;9.152;2024-03-17T09:47:42;4.13;;;3.70;;
946;SDS011;460;48.734;9.152;2024-03-17T09:50:12;3.50;;;3.20;;
946;SDS011;460;48.734;9.152;2024-03-17T09:52:42;4.23;;;3.43;;
946;SDS011;460;48.734;9.152;2024-03-17T09:55:13;4.10;;;3.53;;
946;SDS011;460;48.734;9.152;2024-03-17T09:57:42;4.13;;;3.73;;
946;SDS011;460;48.734;9.152;2024-03-17T10:00:10;3.40;;;3.00;;
946;SDS011;460;48.734;9.152;2024-03-17T10:02:41;4.43;;;3.83;;
946;SDS011;460;48.734;9.152;2024-03-17T10:05:17;4.50;;;3.37;;
946;SDS011;460;48.734;9.152;2024-03-17T10:07:46;4.43;;;3.80;;
946;SDS011;460;48.734;9.152;2024-03-17T10:10:14;4.47;;;3.67;;
946;SDS011;460;48.734;9.152;2024-03-17T10:12:43;3.50;;;3.20;;
946;SDS011;460;48.734;9.152;2024-03-17T10:15:10;6.97;;;3.73;;
946;SDS011;460;48.734;9.152;2024-03-17T10:17:37;4.10;;;3.60;;
946;SDS011;460;48.734;9.152;2024-03-17T10:20:11;5.80;;;3.93;;
946;SDS011;460;48.734;9.152;2024-03-17T10:22:40;4.93;;;3.63;;
946;SDS011;460;48.734;9.152;2024-03-17T10:25:23;4.30;;;3.90;;
946;SDS011;460;48.734;9.152;2024-03-17T10:27:50;4.23;;;3.83;;
946;SDS011;460;48.734;9.152;2024-03-17T10:30:18;5.60;;;3.03;;
946;SDS011;460;48.734;9.152;2024-03-17T10:32:46;4.47;;;3.60;;
946;SDS011;460;48.734;9.152;2024-03-17T10:35:26;4.27;;;3.87;;
946;SDS011;460;48.734;9.152;2024-03-17T10:37:55;4.17;;;3.30;;
946;SDS011;460;48.734;9.152;2024-03-17T10:40:24;3.40;;;3.10;;
946;SDS011;460;48.734;9.152;2024-03-17T10:42:51;3.50;;;2.80;;
946;SDS011;460;48.734;9.152;2024-03-17T10:45:18;3.00;;;2.70;;
946;SDS011;460;48.734;9.152;2024-03-17T10:47:47;4.13;;;3.47;;
946;SDS011;460;48.734;9.152;2024-03-17T10:50:16;4.17;;;3.77;;
946;SDS011;460;48.734;9.152;2024-03-17T10:52:45;3.73;;;3.43;;
946;SDS011;460;48.734;9.152;2024-03-17T10:55:21;3.83;;;3.40;;
946;SDS011;460;48.734;9.152;2024-03-17T10:57:49;4.40;;;3.70;;
946;SDS011;460;48.734;9.152;2024-03-17T11:00:17;3.50;;;3.03;;
946;SDS011;460;48.734;9.152;2024-03-17T11:02:47;3.50;;;3.20;;
946;SDS011;460;48.734;9.152;2024-03-17T11:05:15;4.93;;;3.40;;
946;SDS011;460;48.734;9.152;2024-03-17T11:07:45;3.57;;;3.03;;
946;SDS011;460;48.734;9.152;2024-03-17T11:10:18;4.57;;;3.43;;
946;SDS011;460;48.734;9.152;2024-03-17T11:12:48;6.03;;;3.20;;
946;SDS011;460;48.734;9.152;2024-03-17T11:21:02;3.67;;;3.20;;
946;SDS011;460;48.734;9.152;2024-03-17T11:23:35;3.70;;;3.40;;
946;SDS011;460;48.734;9.152;2024-03-17T11:26:05;4.50;;;3.13;;
946;SDS011;460;48.734;9.152;2024-03-17T11:28:48;3.27;;;2.97;;
946;SDS011;460;48.734;9.152;2024-03-17T11:31:36;3.20;;;2.90;;
946;SDS011;460;48.734;9.152;2024-03-17T11:34:07;2.73;;;2.53;;
946;SDS011;460;48.734;9.152;2024-03-17T11:36:56;3.00;;;2.80;;
946;SDS011;460;48.734;9.152;2024-03-17T11:42:31;3.03;;;2.73;;
946;SDS011;460;48.734;9.152;2024-03-17T11:44:58;2.90;;;2.43;;
946;SDS011;460;48.734;9.152;2024-03-17T11:47:38;3.00;;;2.80;;
946;SDS011;460;48.734;9.152;2024-03-17T11:50:05;3.03;;;2.77;;
946;SDS011;460;48.734;9.152;2024-03-17T11:52:34;3.13;;;2.93;;
946;SDS011;460;48.734;9.152;2024-03-17T11:55:01;4.00;;;2.93;;
946;SDS011;460;48.734;9.152;2024-03-17T11:57:28;2.93;;;2.63;;
946;SDS011;460;48.734;9.152;2024-03-17T11:59:56;3.90;;;2.90;;
946;SDS011;460;48.734;9.152;2024-03-17T12:02:24;3.90;;;2.83;;
946;SDS011;460;48.734;9.152;2024-03-17T12:04:51;2.37;;;2.17;;
946;SDS011;460;48.734;9.152;2024-03-17T12:07:20;7.23;;;2.43;;
946;SDS011;460;48.734;9.152;2024-03-17T12:09:48;2.83;;;2.53;;
946;SDS011;460;48.734;9.152;2024-03-17T12:12:16;4.90;;;3.00;;
946;SDS011;460;48.734;9.152;2024-03-17T12:14:44;3.93;;;3.20;;
946;SDS011;460;48.734;9.152;2024-03-17T12:17:13;2.90;;;2.57;;
946;SDS011;460;48.734;9.152;2024-03-17T12:19:40;2.77;;;2.50;;
946;SDS011;460;48.734;9.152;2024-03-17T12:22:09;4.80;;;2.47;;
946;SDS011;460;48.734;9.152;2024-03-17T12:24:43;1.97;;;1.80;;
946;SDS011;460;48.734;9.152;2024-03-17T12:27:15;2.47;;;2.27;;
946;SDS011;460;48.734;9.152;2024-03-17T12:29:43;3.53;;;2.37;;
946;SDS011;460;48.734;9.152;2024-03-17T12:32:11;4.53;;;2.10;;
946;SDS011;460;48.734;9.152;2024-03-17T12:34:42;3.23;;;2.00;;
946;SDS011;460;48.734;9.152;2024-03-17T12:37:13;3.87;;;1.70;;
946;SDS011;460;48.734;9.152;2024-03-17T12:39:43;4.50;;;2.30;;
946;SDS011;460;48.734;9.152;2024-03-17T12:42:10;3.40;;;1.90;;
946;SDS011;460;48.734;9.152;2024-03-17T12:44:38;2.23;;;1.87;;
946;SDS011;460;48.734;9.152;2024-03-17T12:47:08;1.40;;;1.30;;
946;SDS011;460;48.734;9.152;2024-03-17T12:49:45;2.63;;;1.50;;
946;SDS011;460;48.734;9.152;2024-03-17T12:52:19;1.57;;;1.43;;
946;SDS011;460;48.734;9.152;2024-03-17T12:54:56;2.73;;;1.63;;
946;SDS011;460;48.734;9.152;2024-03-17T12:57:46;1.60;;;1.50;;
946;SDS011;460;48.734;9.152;2024-03-17T13:00:31;2.23;;;2.07;;
946;SDS011;460;48.734;9.152;2024-03-17T13:02:59;2.87;;;1.50;;
946;SDS011;460;48.734;9.152;2024-03-17T13:05:27;2.53;;;2.43;;
946;SDS011;460;48.734;9.152;2024-03-17T13:07:55;1.97;;;1.60;;
946;SDS011;460;48.734;9.152;2024-03-17T13:10:23;1.30;;;1.20;;
946;SDS011;460;48.734;9.152;2024-03-17T13:12:58;1.93;;;1.73;;
946;SDS011;460;48.734;9.152;2024-03-17T13:15:26;3.87;;;1.83;;
946;SDS011;460;48.734;9.152;2024-03-17T13:17:53;2.23;;;1.60;;
946;SDS011;460;48.734;9.152;2024-03-17T13:20:20;1.90;;;1.80;;
946;SDS011;460;48.734;9.152;2024-03-17T13:22:48;2.00;;;1.57;;
946;SDS011;460;48.734;9.152;2024-03-17T13:25:16;2.40;;;2.20;;
946;SDS011;460;48.734;9.152;2024-03-17T13:27:44;2.17;;;1.50;;
946;SDS011;460;48.734;9.152;2024-03-17T13:30:12;1.60;;;1.50;;
946;SDS011;460;48.734;9.152;2024-03-17T13:32:39;1.63;;;1.53;;
946;SDS011;460;48.734;9.152;2024-03-17T13:35:10;2.73;;;1.60;;
946;SDS011;460;48.734;9.152;2024-03-17T13:37:41;1.93;;;1.70;;
946;SDS011;460;48.734;9.152;2024-03-17T13:40:10;1.47;;;1.37;;
946;SDS011;460;48.734;9.152;2024-03-17T13:42:37;3.37;;;1.63;;
946;SDS011;460;48.734;9.152;2024-03-17T13:45:04;4.70;;;4.07;;
946;SDS011;460;48.734;9.152;2024-03-17T13:47:35;2.00;;;1.80;;
946;SDS011;460;48.734;9.152;2024-03-17T13:50:02;2.77;;;2.33;;
946;SDS011;460;48.734;9.152;2024-03-17T13:52:35;2.60;;;2.13;;
946;SDS011;460;48.734;9.152;2024-03-17T13:55:02;1.60;;;1.50;;
946;SDS011;460;48.734;9.152;2024-03-17T13:57:33;1.40;;;1.30;;
946;SDS011;460;48.734;9.152;2024-03-17T13:59:59;1.90;;;1.80;;
946;SDS011;460;48.734;9.152;2024-03-17T14:02:27;2.10;;;1.73;;
946;SDS011;460;48.734;9.152;2024-03-17T14:04:54;1.60;;;1.50;;
946;SDS011;460;48.734;9.152;2024-03-17T14:07:21;1.67;;;1.40;;
946;SDS011;460;48.734;9.152;2024-03-17T14:09:48;3.60;;;1.90;;
946;SDS011;460;48.734;9.152;2024-03-17T14:12:14;1.87;;;1.30;;
946;SDS011;460;48.734;9.152;2024-03-17T14:14:42;1.50;;;1.40;;
946;SDS011;460;48.734;9.152;2024-03-17T14:17:09;2.03;;;1.93;;
946;SDS011;460;48.734;9.152;2024-03-17T14:19:38;1.70;;;1.60;;
946;SDS011;460;48.734;9.152;2024-03-17T14:22:05;1.80;;;1.70;;
946;SDS011;460;48.734;9.152;2024-03-17T14:24:37;3.80;;;1.43;;
946;SDS011;460;48.734;9.152;2024-03-17T14:27:08;1.50;;;1.40;;
946;SDS011;460;48.734;9.152;2024-03-17T14:29:38;2.00;;;1.90;;
946;SDS011;460;48.734;9.152;2024-03-17T14:32:06;1.50;;;1.40;;
946;SDS011;460;48.734;9.152;2024-03-17T14:34:33;1.60;;;1.50;;
946;SDS011;460;48.734;9.152;2024-03-17T14:37:02;9.00;;;1.53;;
946;SDS011;460;48.734;9.152;2024-03-17T14:39:29;3.63;;;1.90;;
946;SDS011;460;48.734;9.152;2024-03-17T14:41:56;3.77;;;1.97;;
946;SDS011;460;48.734;9.152;2024-03-17T14:44:23;1.43;;;1.33;;
946;SDS011;460;48.734;9.152;2024-03-17T14:46:50;2.00;;;1.67;;
946;SDS011;460;48.734;9.152;2024-03-17T14:49:18;1.60;;;1.50;;
946;SDS011;460;48.734;9.152;2024-03-17T14:51:45;1.70;;;1.33;;
946;SDS011;460;48.734;9.152;2024-03-17T14:54:12;1.50;;;1.40;;
946;SDS011;460;48.734;9.152;2024-03-17T14:56:39;1.97;;;1.50;;
946;SDS011;460;48.734;9.152;2024-03-17T14:59:06;1.97;;;1.50;;
946;SDS011;460;48.734;9.152;2024-03-17T15:01:33;1.93;;;1.50;;
946;SDS011;460;48.734;9.152;2024-03-17T15:04:00;5.33;;;1.50;;
946;SDS011;460;48.734;9.152;2024-03-17T15:06:29;2.03;;;1.70;;
946;SDS011;460;48.734;9.152;2024-03-17T15:08:56;1.50;;;1.40;;
946;SDS011;460;48.734;9.152;2024-03-17T15:11:22;2.07;;;1.13;;
946;SDS011;460;48.734;9.152;2024-03-17T15:13:49;2.60;;;1.50;;
946;SDS011;460;48.734;9.152;2024-03-17T15:16:16;1.57;;;1.47;;
946;SDS011;460;48.734;9.152;2024-03-17T15:18:44;4.13;;;1.90;;
946;SDS011;460;48.734;9.152;2024-03-17T15:21:10;2.10;;;1.47;;
946;SDS011;460;48.734;9.152;2024-03-17T15:23:39;3.00;;;2.10;;
946;SDS011;460;48.734;9.152;2024-03-17T15:26:06;1.93;;;1.50;;
946;SDS011;460;48.734;9.152;2024-03-17T15:28:34;1.50;;;1.40;;
946;SDS011;460;48.734;9.152;2024-03-17T15:31:02;4.67;;;2.60;;
946;SDS011;460;48.734;9.152;2024-03-17T15:33:32;4.53;;;2.70;;
946;SDS011;460;48.734;9.152;2024-03-17T15:36:02;4.50;;;1.43;;
946;SDS011;460;48.734;9.152;2024-03-17T15:38:30;1.87;;;1.67;;
946;SDS011;460;48.734;9.152;2024-03-17T15:40:59;3.13;;;2.30;;
946;SDS011;460;48.734;9.152;2024-03-17T15:43:31;2.53;;;2.00;;
946;SDS011;460;48.734;9.152;2024-03-17T15:45:58;2.57;;;2.37;;
946;SDS011;460;48.734;9.152;2024-03-17T15:48:25;4.27;;;2.93;;
946;SDS011;460;48.734;9.152;2024-03-17T15:50:53;3.90;;;2.50;;
946;SDS011;460;48.734;9.152;2024-03-17T15:53:21;4.10;;;3.00;;